sensor_id;sensor_type;location;lat;lon;timestamp;temperature;humidity
39315;DHT22;28703;44.412;11.918;2023-05-10T00:02:20;20.10;98.40
39315;DHT22;28703;44.412;11.918;2023-05-10T00:07:36;20.00;98.30
39315;DHT22;28703;44.412;11.918;2023-05-10T00:10:12;20.10;98.30
39315;DHT22;28703;44.412;11.918;2023-05-10T00:13:04;20.00;98.30
39315;DHT22;28703;44.412;11.918;2023-05-10T00:15:49;20.00;98.30
39315;DHT22;28703;44.412;11.918;2023-05-10T00:18:20;20.00;98.30
39315;DHT22;28703;44.412;11.918;2023-05-10T00:20:51;19.90;98.40
39315;DHT22;28703;44.412;11.918;2023-05-10T00:23:22;20.00;98.40
39315;DHT22;28703;44.412;11.918;2023-05-10T00:26:07;20.00;98.40
39315;DHT22;28703;44.412;11.918;2023-05-10T00:28:37;19.90;98.40
39315;DHT22;28703;44.412;11.918;2023-05-10T00:31:08;19.90;98.40
39315;DHT22;28703;44.412;11.918;2023-05-10T00:33:44;19.90;98.40
39315;DHT22;28703;44.412;11.918;2023-05-10T00:36:10;19.90;98.40
39315;DHT22;28703;44.412;11.918;2023-05-10T00:38:37;19.90;98.40
39315;DHT22;28703;44.412;11.918;2023-05-10T00:41:03;19.90;98.40
39315;DHT22;28703;44.412;11.918;2023-05-10T00:43:48;19.90;98.40
39315;DHT22;28703;44.412;11.918;2023-05-10T00:46:15;19.80;98.40
39315;DHT22;28703;44.412;11.918;2023-05-10T00:48:42;19.80;98.50
39315;DHT22;28703;44.412;11.918;2023-05-10T00:51:12;19.80;98.50
39315;DHT22;28703;44.412;11.918;2023-05-10T00:54:00;19.80;98.50
39315;DHT22;28703;44.412;11.918;2023-05-10T00:56:26;19.80;98.60
39315;DHT22;28703;44.412;11.918;2023-05-10T00:58:54;19.80;98.70
39315;DHT22;28703;44.412;11.918;2023-05-10T01:04:05;19.70;98.70
39315;DHT22;28703;44.412;11.918;2023-05-10T01:06:33;19.70;98.80
39315;DHT22;28703;44.412;11.918;2023-05-10T01:11:49;19.70;98.90
39315;DHT22;28703;44.412;11.918;2023-05-10T01:14:18;19.70;99.00
39315;DHT22;28703;44.412;11.918;2023-05-10T01:17:04;19.70;99.10
39315;DHT22;28703;44.412;11.918;2023-05-10T01:19:31;19.70;99.10
39315;DHT22;28703;44.412;11.918;2023-05-10T01:28:13;19.60;99.30
39315;DHT22;28703;44.412;11.918;2023-05-10T01:36:39;19.50;99.90
39315;DHT22;28703;44.412;11.918;2023-05-10T01:49:55;19.50;99.90
39315;DHT22;28703;44.412;11.918;2023-05-10T01:53:00;19.50;99.90
39315;DHT22;28703;44.412;11.918;2023-05-10T01:55:46;19.40;99.90
39315;DHT22;28703;44.412;11.918;2023-05-10T02:04:22;19.40;99.90
39315;DHT22;28703;44.412;11.918;2023-05-10T02:06:53;19.40;99.90
39315;DHT22;28703;44.412;11.918;2023-05-10T02:09:21;19.30;99.90
39315;DHT22;28703;44.412;11.918;2023-05-10T02:11:50;19.30;99.90
39315;DHT22;28703;44.412;11.918;2023-05-10T02:14:16;19.30;99.90
39315;DHT22;28703;44.412;11.918;2023-05-10T02:16:43;19.30;99.90
39315;DHT22;28703;44.412;11.918;2023-05-10T02:19:11;19.30;99.90
39315;DHT22;28703;44.412;11.918;2023-05-10T02:21:39;19.30;99.90
39315;DHT22;28703;44.412;11.918;2023-05-10T02:24:08;19.30;99.90
39315;DHT22;28703;44.412;11.918;2023-05-10T02:26:37;19.20;99.90
39315;DHT22;28703;44.412;11.918;2023-05-10T02:29:07;19.20;99.90
39315;DHT22;28703;44.412;11.918;2023-05-10T02:31:34;19.20;99.90
39315;DHT22;28703;44.412;11.918;2023-05-10T02:34:02;19.20;99.90
39315;DHT22;28703;44.412;11.918;2023-05-10T02:36:29;19.20;99.90
39315;DHT22;28703;44.412;11.918;2023-05-10T02:38:55;19.20;99.90
39315;DHT22;28703;44.412;11.918;2023-05-10T02:41:23;19.10;99.90
39315;DHT22;28703;44.412;11.918;2023-05-10T02:43:51;19.10;99.90
39315;DHT22;28703;44.412;11.918;2023-05-10T02:46:20;19.10;99.90
39315;DHT22;28703;44.412;11.918;2023-05-10T02:48:46;19.10;99.90
39315;DHT22;28703;44.412;11.918;2023-05-10T02:51:15;19.00;99.90
39315;DHT22;28703;44.412;11.918;2023-05-10T02:53:44;19.00;99.90
39315;DHT22;28703;44.412;11.918;2023-05-10T02:56:25;19.00;99.90
39315;DHT22;28703;44.412;11.918;2023-05-10T02:58:54;18.90;99.90
39315;DHT22;28703;44.412;11.918;2023-05-10T03:01:20;18.90;99.90
39315;DHT22;28703;44.412;11.918;2023-05-10T03:03:46;18.90;99.90
39315;DHT22;28703;44.412;11.918;2023-05-10T03:06:12;18.90;99.90
39315;DHT22;28703;44.412;11.918;2023-05-10T03:08:38;18.80;99.90
39315;DHT22;28703;44.412;11.918;2023-05-10T03:17:11;18.80;99.90
39315;DHT22;28703;44.412;11.918;2023-05-10T03:19:56;18.80;99.90
39315;DHT22;28703;44.412;11.918;2023-05-10T03:25:06;18.70;99.90
39315;DHT22;28703;44.412;11.918;2023-05-10T03:27:34;18.70;99.90
39315;DHT22;28703;44.412;11.918;2023-05-10T03:30:02;18.70;99.90
39315;DHT22;28703;44.412;11.918;2023-05-10T03:32:31;18.60;99.90
39315;DHT22;28703;44.412;11.918;2023-05-10T03:34:58;18.60;99.90
39315;DHT22;28703;44.412;11.918;2023-05-10T03:37:25;18.60;99.90
39315;DHT22;28703;44.412;11.918;2023-05-10T03:39:51;18.60;99.90
39315;DHT22;28703;44.412;11.918;2023-05-10T03:42:20;18.60;99.90
39315;DHT22;28703;44.412;11.918;2023-05-10T03:44:46;18.60;99.90
39315;DHT22;28703;44.412;11.918;2023-05-10T03:47:18;18.60;99.90
39315;DHT22;28703;44.412;11.918;2023-05-10T03:49:44;18.60;99.90
39315;DHT22;28703;44.412;11.918;2023-05-10T03:52:21;18.60;99.90
39315;DHT22;28703;44.412;11.918;2023-05-10T03:54:52;18.50;99.90
39315;DHT22;28703;44.412;11.918;2023-05-10T03:57:25;18.50;99.90
39315;DHT22;28703;44.412;11.918;2023-05-10T04:02:36;18.50;99.90
39315;DHT22;28703;44.412;11.918;2023-05-10T04:05:23;18.50;99.90
39315;DHT22;28703;44.412;11.918;2023-05-10T04:07:54;18.50;99.90
39315;DHT22;28703;44.412;11.918;2023-05-10T04:10:42;18.40;99.90
39315;DHT22;28703;44.412;11.918;2023-05-10T04:13:12;18.40;99.90
39315;DHT22;28703;44.412;11.918;2023-05-10T04:15:51;18.40;99.90
39315;DHT22;28703;44.412;11.918;2023-05-10T04:18:26;18.50;99.90
39315;DHT22;28703;44.412;11.918;2023-05-10T04:20:52;18.40;99.90
39315;DHT22;28703;44.412;11.918;2023-05-10T04:23:44;18.40;99.90
39315;DHT22;28703;44.412;11.918;2023-05-10T04:26:20;18.40;99.90
39315;DHT22;28703;44.412;11.918;2023-05-10T04:28:58;18.30;99.90
39315;DHT22;28703;44.412;11.918;2023-05-10T04:31:39;18.40;99.90
39315;DHT22;28703;44.412;11.918;2023-05-10T04:34:09;18.30;99.90
39315;DHT22;28703;44.412;11.918;2023-05-10T04:36:48;18.30;99.90
39315;DHT22;28703;44.412;11.918;2023-05-10T04:39:20;18.30;99.90
39315;DHT22;28703;44.412;11.918;2023-05-10T04:41:55;18.30;99.90
39315;DHT22;28703;44.412;11.918;2023-05-10T04:44:30;18.30;99.90
39315;DHT22;28703;44.412;11.918;2023-05-10T04:47:02;18.30;99.90
39315;DHT22;28703;44.412;11.918;2023-05-10T04:49:38;18.30;99.90
39315;DHT22;28703;44.412;11.918;2023-05-10T04:52:24;18.30;99.90
39315;DHT22;28703;44.412;11.918;2023-05-10T04:54:57;18.30;99.90
39315;DHT22;28703;44.412;11.918;2023-05-10T04:57:54;18.30;99.90
39315;DHT22;28703;44.412;11.918;2023-05-10T05:00:31;18.30;99.90
39315;DHT22;28703;44.412;11.918;2023-05-10T05:03:04;18.30;99.90
39315;DHT22;28703;44.412;11.918;2023-05-10T05:05:31;18.30;99.90
39315;DHT22;28703;44.412;11.918;2023-05-10T05:08:05;18.30;99.90
39315;DHT22;28703;44.412;11.918;2023-05-10T05:10:36;18.30;99.90
39315;DHT22;28703;44.412;11.918;2023-05-10T05:13:05;18.30;99.90
39315;DHT22;28703;44.412;11.918;2023-05-10T05:15:34;18.30;99.90
39315;DHT22;28703;44.412;11.918;2023-05-10T05:18:04;18.30;99.90
39315;DHT22;28703;44.412;11.918;2023-05-10T05:20:32;18.20;99.90
39315;DHT22;28703;44.412;11.918;2023-05-10T05:23:13;18.20;99.90
39315;DHT22;28703;44.412;11.918;2023-05-10T05:25:41;18.20;99.90
39315;DHT22;28703;44.412;11.918;2023-05-10T05:28:08;18.10;99.90
39315;DHT22;28703;44.412;11.918;2023-05-10T05:30:39;18.10;99.90
39315;DHT22;28703;44.412;11.918;2023-05-10T05:33:09;18.20;99.90
39315;DHT22;28703;44.412;11.918;2023-05-10T05:35:38;18.10;99.90
39315;DHT22;28703;44.412;11.918;2023-05-10T05:38:04;18.20;99.90
39315;DHT22;28703;44.412;11.918;2023-05-10T05:40:31;18.10;99.90
39315;DHT22;28703;44.412;11.918;2023-05-10T05:43:05;18.10;99.90
39315;DHT22;28703;44.412;11.918;2023-05-10T05:45:40;18.10;99.90
39315;DHT22;28703;44.412;11.918;2023-05-10T05:48:10;18.10;99.90
39315;DHT22;28703;44.412;11.918;2023-05-10T05:50:42;18.10;99.90
39315;DHT22;28703;44.412;11.918;2023-05-10T05:53:16;18.10;99.90
39315;DHT22;28703;44.412;11.918;2023-05-10T05:55:58;18.10;99.90
39315;DHT22;28703;44.412;11.918;2023-05-10T05:58:27;18.10;99.90
39315;DHT22;28703;44.412;11.918;2023-05-10T06:01:03;18.10;99.90
39315;DHT22;28703;44.412;11.918;2023-05-10T06:03:37;18.10;99.90
39315;DHT22;28703;44.412;11.918;2023-05-10T06:06:04;18.10;99.90
39315;DHT22;28703;44.412;11.918;2023-05-10T06:08:36;18.10;99.90
39315;DHT22;28703;44.412;11.918;2023-05-10T06:11:03;18.10;99.90
39315;DHT22;28703;44.412;11.918;2023-05-10T06:13:29;18.10;99.90
39315;DHT22;28703;44.412;11.918;2023-05-10T06:16:02;18.10;99.90
39315;DHT22;28703;44.412;11.918;2023-05-10T06:18:28;18.10;99.90
39315;DHT22;28703;44.412;11.918;2023-05-10T06:20:57;18.10;99.90
39315;DHT22;28703;44.412;11.918;2023-05-10T06:23:26;18.10;99.90
39315;DHT22;28703;44.412;11.918;2023-05-10T06:26:04;18.20;99.90
39315;DHT22;28703;44.412;11.918;2023-05-10T06:28:39;18.10;99.90
39315;DHT22;28703;44.412;11.918;2023-05-10T06:31:16;18.20;99.90
39315;DHT22;28703;44.412;11.918;2023-05-10T06:33:43;18.20;99.90
39315;DHT22;28703;44.412;11.918;2023-05-10T06:36:09;18.20;99.90
39315;DHT22;28703;44.412;11.918;2023-05-10T06:38:38;18.20;99.90
39315;DHT22;28703;44.412;11.918;2023-05-10T06:41:04;18.30;99.90
39315;DHT22;28703;44.412;11.918;2023-05-10T06:43:33;18.30;99.90
39315;DHT22;28703;44.412;11.918;2023-05-10T06:46:03;18.30;99.90
39315;DHT22;28703;44.412;11.918;2023-05-10T06:48:37;18.30;99.90
39315;DHT22;28703;44.412;11.918;2023-05-10T06:51:14;18.30;99.90
39315;DHT22;28703;44.412;11.918;2023-05-10T06:53:53;18.40;99.90
39315;DHT22;28703;44.412;11.918;2023-05-10T06:56:26;18.30;99.90
39315;DHT22;28703;44.412;11.918;2023-05-10T06:58:53;18.30;99.90
39315;DHT22;28703;44.412;11.918;2023-05-10T07:01:34;18.40;99.90
39315;DHT22;28703;44.412;11.918;2023-05-10T07:07:02;18.40;99.90
39315;DHT22;28703;44.412;11.918;2023-05-10T07:09:43;18.40;99.90
39315;DHT22;28703;44.412;11.918;2023-05-10T07:12:15;18.50;99.90
39315;DHT22;28703;44.412;11.918;2023-05-10T07:14:47;18.40;99.90
39315;DHT22;28703;44.412;11.918;2023-05-10T07:17:24;18.40;99.90
39315;DHT22;28703;44.412;11.918;2023-05-10T07:19:50;18.40;99.90
39315;DHT22;28703;44.412;11.918;2023-05-10T07:22:17;18.40;99.90
39315;DHT22;28703;44.412;11.918;2023-05-10T07:24:49;18.50;99.90
39315;DHT22;28703;44.412;11.918;2023-05-10T07:27:16;18.50;99.90
39315;DHT22;28703;44.412;11.918;2023-05-10T07:29:45;18.40;99.90
39315;DHT22;28703;44.412;11.918;2023-05-10T07:32:17;18.40;99.90
39315;DHT22;28703;44.412;11.918;2023-05-10T07:34:46;18.40;99.90
39315;DHT22;28703;44.412;11.918;2023-05-10T07:37:21;18.40;99.90
39315;DHT22;28703;44.412;11.918;2023-05-10T07:39:53;18.40;99.90
39315;DHT22;28703;44.412;11.918;2023-05-10T07:42:20;18.30;99.90
39315;DHT22;28703;44.412;11.918;2023-05-10T07:44:58;18.30;99.90
39315;DHT22;28703;44.412;11.918;2023-05-10T07:47:38;18.30;99.90
39315;DHT22;28703;44.412;11.918;2023-05-10T07:50:27;18.30;99.90
39315;DHT22;28703;44.412;11.918;2023-05-10T07:52:55;18.30;99.90
39315;DHT22;28703;44.412;11.918;2023-05-10T07:55:25;18.20;99.90
39315;DHT22;28703;44.412;11.918;2023-05-10T07:58:12;18.20;99.90
39315;DHT22;28703;44.412;11.918;2023-05-10T08:00:49;18.20;99.90
39315;DHT22;28703;44.412;11.918;2023-05-10T08:06:16;18.10;99.90
39315;DHT22;28703;44.412;11.918;2023-05-10T08:08:59;18.10;99.90
39315;DHT22;28703;44.412;11.918;2023-05-10T08:11:26;18.10;99.90
39315;DHT22;28703;44.412;11.918;2023-05-10T08:13:54;18.10;99.90
39315;DHT22;28703;44.412;11.918;2023-05-10T08:16:22;18.10;99.90
39315;DHT22;28703;44.412;11.918;2023-05-10T08:19:04;18.10;99.90
39315;DHT22;28703;44.412;11.918;2023-05-10T08:21:32;18.00;99.90
39315;DHT22;28703;44.412;11.918;2023-05-10T08:24:07;18.00;99.90
39315;DHT22;28703;44.412;11.918;2023-05-10T08:26:34;18.10;99.90
39315;DHT22;28703;44.412;11.918;2023-05-10T08:29:03;18.10;99.90
39315;DHT22;28703;44.412;11.918;2023-05-10T08:31:30;18.10;99.90
39315;DHT22;28703;44.412;11.918;2023-05-10T08:34:03;18.10;99.90
39315;DHT22;28703;44.412;11.918;2023-05-10T08:36:29;18.10;99.90
39315;DHT22;28703;44.412;11.918;2023-05-10T08:41:59;18.20;99.90
39315;DHT22;28703;44.412;11.918;2023-05-10T08:44:44;18.10;99.90
39315;DHT22;28703;44.412;11.918;2023-05-10T08:47:18;18.20;99.90
39315;DHT22;28703;44.412;11.918;2023-05-10T08:49:54;18.10;99.90
39315;DHT22;28703;44.412;11.918;2023-05-10T08:52:45;18.20;99.90
39315;DHT22;28703;44.412;11.918;2023-05-10T08:55:18;18.20;99.90
39315;DHT22;28703;44.412;11.918;2023-05-10T08:57:44;18.10;99.90
39315;DHT22;28703;44.412;11.918;2023-05-10T09:00:12;18.10;99.90
39315;DHT22;28703;44.412;11.918;2023-05-10T09:02:39;18.20;99.90
39315;DHT22;28703;44.412;11.918;2023-05-10T09:05:12;18.10;99.90
39315;DHT22;28703;44.412;11.918;2023-05-10T09:07:39;18.10;99.90
39315;DHT22;28703;44.412;11.918;2023-05-10T09:10:06;18.10;99.90
39315;DHT22;28703;44.412;11.918;2023-05-10T09:12:33;18.10;99.90
39315;DHT22;28703;44.412;11.918;2023-05-10T09:15:00;18.10;99.90
39315;DHT22;28703;44.412;11.918;2023-05-10T09:17:30;18.10;99.90
39315;DHT22;28703;44.412;11.918;2023-05-10T09:20:00;18.10;99.90
39315;DHT22;28703;44.412;11.918;2023-05-10T09:22:27;18.10;99.90
39315;DHT22;28703;44.412;11.918;2023-05-10T09:27:36;18.10;99.90
39315;DHT22;28703;44.412;11.918;2023-05-10T09:30:03;18.10;99.90
39315;DHT22;28703;44.412;11.918;2023-05-10T09:32:42;18.10;99.90
39315;DHT22;28703;44.412;11.918;2023-05-10T09:35:14;18.10;99.90
39315;DHT22;28703;44.412;11.918;2023-05-10T09:37:45;18.10;99.90
39315;DHT22;28703;44.412;11.918;2023-05-10T09:40:19;18.10;99.90
39315;DHT22;28703;44.412;11.918;2023-05-10T09:43:03;18.10;99.90
39315;DHT22;28703;44.412;11.918;2023-05-10T09:45:31;18.10;99.90
39315;DHT22;28703;44.412;11.918;2023-05-10T09:47:57;18.00;99.90
39315;DHT22;28703;44.412;11.918;2023-05-10T09:50:25;18.10;99.90
39315;DHT22;28703;44.412;11.918;2023-05-10T09:52:56;18.10;99.90
39315;DHT22;28703;44.412;11.918;2023-05-10T09:55:48;18.10;99.90
39315;DHT22;28703;44.412;11.918;2023-05-10T09:58:20;18.10;99.90
39315;DHT22;28703;44.412;11.918;2023-05-10T10:00:53;18.10;99.90
39315;DHT22;28703;44.412;11.918;2023-05-10T10:03:21;18.10;99.90
39315;DHT22;28703;44.412;11.918;2023-05-10T10:05:48;18.10;99.90
39315;DHT22;28703;44.412;11.918;2023-05-10T10:08:15;18.10;99.90
39315;DHT22;28703;44.412;11.918;2023-05-10T10:10:41;18.20;99.90
39315;DHT22;28703;44.412;11.918;2023-05-10T10:13:11;18.20;99.90
39315;DHT22;28703;44.412;11.918;2023-05-10T10:15:40;18.20;99.90
39315;DHT22;28703;44.412;11.918;2023-05-10T10:18:16;18.20;99.90
39315;DHT22;28703;44.412;11.918;2023-05-10T10:20:49;18.20;99.90
39315;DHT22;28703;44.412;11.918;2023-05-10T10:23:29;18.30;99.90
39315;DHT22;28703;44.412;11.918;2023-05-10T10:26:40;18.30;99.90
39315;DHT22;28703;44.412;11.918;2023-05-10T10:35:59;18.40;99.90
39315;DHT22;28703;44.412;11.918;2023-05-10T10:39:29;18.40;99.90
39315;DHT22;28703;44.412;11.918;2023-05-10T10:42:05;18.40;99.90
39315;DHT22;28703;44.412;11.918;2023-05-10T10:52:23;18.40;99.90
39315;DHT22;28703;44.412;11.918;2023-05-10T10:55:03;18.50;99.90
39315;DHT22;28703;44.412;11.918;2023-05-10T10:57:53;18.50;99.90
39315;DHT22;28703;44.412;11.918;2023-05-10T11:00:36;18.50;99.90
39315;DHT22;28703;44.412;11.918;2023-05-10T11:05:51;18.50;99.90
39315;DHT22;28703;44.412;11.918;2023-05-10T11:08:28;18.50;99.90
39315;DHT22;28703;44.412;11.918;2023-05-10T11:11:28;18.50;99.90
39315;DHT22;28703;44.412;11.918;2023-05-10T11:14:06;18.50;99.90
39315;DHT22;28703;44.412;11.918;2023-05-10T11:16:46;18.50;99.90
39315;DHT22;28703;44.412;11.918;2023-05-10T11:19:30;18.50;99.90
39315;DHT22;28703;44.412;11.918;2023-05-10T11:30:32;18.70;99.90
39315;DHT22;28703;44.412;11.918;2023-05-10T11:33:27;18.80;99.90
39315;DHT22;28703;44.412;11.918;2023-05-10T11:36:16;18.80;99.90
39315;DHT22;28703;44.412;11.918;2023-05-10T11:39:11;18.90;99.90
39315;DHT22;28703;44.412;11.918;2023-05-10T11:41:59;18.90;99.90
39315;DHT22;28703;44.412;11.918;2023-05-10T11:44:34;19.00;99.90
39315;DHT22;28703;44.412;11.918;2023-05-10T11:47:28;19.00;99.90
39315;DHT22;28703;44.412;11.918;2023-05-10T11:50:12;19.10;99.90
39315;DHT22;28703;44.412;11.918;2023-05-10T11:52:40;19.10;99.90
39315;DHT22;28703;44.412;11.918;2023-05-10T11:55:07;19.20;99.90
39315;DHT22;28703;44.412;11.918;2023-05-10T11:58:06;19.20;99.90
39315;DHT22;28703;44.412;11.918;2023-05-10T12:00:32;19.20;99.90
39315;DHT22;28703;44.412;11.918;2023-05-10T12:02:59;19.20;99.90
39315;DHT22;28703;44.412;11.918;2023-05-10T12:05:26;19.20;99.90
39315;DHT22;28703;44.412;11.918;2023-05-10T12:07:52;19.20;99.90
39315;DHT22;28703;44.412;11.918;2023-05-10T12:10:26;19.30;99.90
39315;DHT22;28703;44.412;11.918;2023-05-10T12:12:58;19.30;99.90
39315;DHT22;28703;44.412;11.918;2023-05-10T12:15:27;19.20;99.90
39315;DHT22;28703;44.412;11.918;2023-05-10T12:17:57;19.20;99.90
39315;DHT22;28703;44.412;11.918;2023-05-10T12:20:28;19.10;99.90
39315;DHT22;28703;44.412;11.918;2023-05-10T12:23:01;19.00;99.90
39315;DHT22;28703;44.412;11.918;2023-05-10T12:25:35;18.80;99.90
39315;DHT22;28703;44.412;11.918;2023-05-10T12:28:11;18.60;99.90
39315;DHT22;28703;44.412;11.918;2023-05-10T12:30:39;18.50;99.90
39315;DHT22;28703;44.412;11.918;2023-05-10T12:33:52;18.40;99.90
39315;DHT22;28703;44.412;11.918;2023-05-10T12:36:26;18.30;99.90
39315;DHT22;28703;44.412;11.918;2023-05-10T12:39:23;18.20;99.90
39315;DHT22;28703;44.412;11.918;2023-05-10T12:45:10;17.80;99.90
39315;DHT22;28703;44.412;11.918;2023-05-10T12:48:03;17.30;99.90
39315;DHT22;28703;44.412;11.918;2023-05-10T12:50:42;16.90;99.90
39315;DHT22;28703;44.412;11.918;2023-05-10T12:53:21;16.80;99.90
39315;DHT22;28703;44.412;11.918;2023-05-10T12:55:54;16.60;99.90
39315;DHT22;28703;44.412;11.918;2023-05-10T12:58:20;16.40;99.90
39315;DHT22;28703;44.412;11.918;2023-05-10T13:00:46;16.30;99.90
39315;DHT22;28703;44.412;11.918;2023-05-10T13:03:18;16.10;99.90
39315;DHT22;28703;44.412;11.918;2023-05-10T13:05:52;16.00;99.90
39315;DHT22;28703;44.412;11.918;2023-05-10T13:08:23;15.90;99.90
39315;DHT22;28703;44.412;11.918;2023-05-10T13:10:57;15.80;99.90
39315;DHT22;28703;44.412;11.918;2023-05-10T13:13:25;15.70;99.90
39315;DHT22;28703;44.412;11.918;2023-05-10T13:15:56;15.60;99.90
39315;DHT22;28703;44.412;11.918;2023-05-10T13:18:22;15.50;99.90
39315;DHT22;28703;44.412;11.918;2023-05-10T13:20:57;15.40;99.90
39315;DHT22;28703;44.412;11.918;2023-05-10T13:23:24;15.40;99.90
39315;DHT22;28703;44.412;11.918;2023-05-10T13:25:53;15.30;99.90
39315;DHT22;28703;44.412;11.918;2023-05-10T13:28:22;15.30;99.90
39315;DHT22;28703;44.412;11.918;2023-05-10T13:30:51;15.10;99.90
39315;DHT22;28703;44.412;11.918;2023-05-10T13:33:20;15.10;99.90
39315;DHT22;28703;44.412;11.918;2023-05-10T13:35:47;15.00;99.90
39315;DHT22;28703;44.412;11.918;2023-05-10T13:38:13;14.90;99.90
39315;DHT22;28703;44.412;11.918;2023-05-10T13:40:41;14.90;99.90
39315;DHT22;28703;44.412;11.918;2023-05-10T13:43:10;14.90;99.90
39315;DHT22;28703;44.412;11.918;2023-05-10T13:45:40;14.90;99.90
39315;DHT22;28703;44.412;11.918;2023-05-10T13:48:09;14.90;99.90
39315;DHT22;28703;44.412;11.918;2023-05-10T13:50:41;14.80;99.90
39315;DHT22;28703;44.412;11.918;2023-05-10T13:53:10;14.80;99.90
39315;DHT22;28703;44.412;11.918;2023-05-10T13:55:39;14.80;99.90
39315;DHT22;28703;44.412;11.918;2023-05-10T13:58:14;14.80;99.90
39315;DHT22;28703;44.412;11.918;2023-05-10T14:00:43;14.70;99.90
39315;DHT22;28703;44.412;11.918;2023-05-10T14:03:12;14.70;99.90
39315;DHT22;28703;44.412;11.918;2023-05-10T14:05:44;14.60;99.90
39315;DHT22;28703;44.412;11.918;2023-05-10T14:08:11;14.50;99.90
39315;DHT22;28703;44.412;11.918;2023-05-10T14:10:39;14.50;99.90
39315;DHT22;28703;44.412;11.918;2023-05-10T14:13:07;14.50;99.90
39315;DHT22;28703;44.412;11.918;2023-05-10T14:15:34;14.50;99.90
39315;DHT22;28703;44.412;11.918;2023-05-10T14:18:05;14.50;99.90
39315;DHT22;28703;44.412;11.918;2023-05-10T14:20:31;14.50;99.90
39315;DHT22;28703;44.412;11.918;2023-05-10T14:23:00;14.50;99.90
39315;DHT22;28703;44.412;11.918;2023-05-10T14:25:28;14.50;99.90
39315;DHT22;28703;44.412;11.918;2023-05-10T14:27:57;14.50;99.90
39315;DHT22;28703;44.412;11.918;2023-05-10T14:30:28;14.50;99.90
39315;DHT22;28703;44.412;11.918;2023-05-10T14:32:56;14.50;99.90
39315;DHT22;28703;44.412;11.918;2023-05-10T14:35:27;14.50;99.90
39315;DHT22;28703;44.412;11.918;2023-05-10T14:38:00;14.60;99.90
39315;DHT22;28703;44.412;11.918;2023-05-10T14:40:32;14.50;99.90
39315;DHT22;28703;44.412;11.918;2023-05-10T14:43:09;14.50;99.90
39315;DHT22;28703;44.412;11.918;2023-05-10T14:45:38;14.50;99.90
39315;DHT22;28703;44.412;11.918;2023-05-10T14:48:10;14.50;99.90
39315;DHT22;28703;44.412;11.918;2023-05-10T14:50:52;14.50;99.90
39315;DHT22;28703;44.412;11.918;2023-05-10T14:53:22;14.60;99.90
39315;DHT22;28703;44.412;11.918;2023-05-10T14:56:04;14.60;99.90
39315;DHT22;28703;44.412;11.918;2023-05-10T14:58:53;14.60;99.90
39315;DHT22;28703;44.412;11.918;2023-05-10T15:01:37;14.60;99.90
39315;DHT22;28703;44.412;11.918;2023-05-10T15:04:22;14.60;99.90
39315;DHT22;28703;44.412;11.918;2023-05-10T15:07:09;14.60;99.90
39315;DHT22;28703;44.412;11.918;2023-05-10T15:09:42;14.60;99.90
39315;DHT22;28703;44.412;11.918;2023-05-10T15:12:16;14.60;99.90
39315;DHT22;28703;44.412;11.918;2023-05-10T15:15:02;14.60;99.90
39315;DHT22;28703;44.412;11.918;2023-05-10T15:17:33;14.60;99.90
39315;DHT22;28703;44.412;11.918;2023-05-10T15:20:00;14.70;99.90
39315;DHT22;28703;44.412;11.918;2023-05-10T15:22:45;14.60;99.90
39315;DHT22;28703;44.412;11.918;2023-05-10T15:25:17;14.60;99.90
39315;DHT22;28703;44.412;11.918;2023-05-10T15:27:49;14.60;99.90
39315;DHT22;28703;44.412;11.918;2023-05-10T15:30:29;14.60;99.90
39315;DHT22;28703;44.412;11.918;2023-05-10T15:33:00;14.50;99.90
39315;DHT22;28703;44.412;11.918;2023-05-10T15:35:34;14.50;99.90
39315;DHT22;28703;44.412;11.918;2023-05-10T15:38:05;14.60;99.90
39315;DHT22;28703;44.412;11.918;2023-05-10T15:40:32;14.60;99.90
39315;DHT22;28703;44.412;11.918;2023-05-10T15:43:05;14.60;99.90
39315;DHT22;28703;44.412;11.918;2023-05-10T15:45:39;14.60;99.90
39315;DHT22;28703;44.412;11.918;2023-05-10T15:48:11;14.60;99.90
39315;DHT22;28703;44.412;11.918;2023-05-10T15:50:44;14.60;99.90
39315;DHT22;28703;44.412;11.918;2023-05-10T15:53:13;14.50;99.90
39315;DHT22;28703;44.412;11.918;2023-05-10T15:55:53;14.50;99.90
39315;DHT22;28703;44.412;11.918;2023-05-10T15:58:22;14.50;99.90
39315;DHT22;28703;44.412;11.918;2023-05-10T16:00:57;14.50;99.90
39315;DHT22;28703;44.412;11.918;2023-05-10T16:06:49;14.50;99.90
39315;DHT22;28703;44.412;11.918;2023-05-10T16:09:22;14.50;99.90
39315;DHT22;28703;44.412;11.918;2023-05-10T16:11:57;14.40;99.90
39315;DHT22;28703;44.412;11.918;2023-05-10T16:14:28;14.40;99.90
39315;DHT22;28703;44.412;11.918;2023-05-10T16:17:01;14.40;99.90
39315;DHT22;28703;44.412;11.918;2023-05-10T16:19:30;14.30;99.90
39315;DHT22;28703;44.412;11.918;2023-05-10T16:22:01;14.40;99.90
39315;DHT22;28703;44.412;11.918;2023-05-10T16:24:36;14.40;99.90
39315;DHT22;28703;44.412;11.918;2023-05-10T16:27:11;14.40;99.90
39315;DHT22;28703;44.412;11.918;2023-05-10T16:29:38;14.40;99.90
39315;DHT22;28703;44.412;11.918;2023-05-10T16:32:04;14.40;99.90
39315;DHT22;28703;44.412;11.918;2023-05-10T16:34:36;14.40;99.90
39315;DHT22;28703;44.412;11.918;2023-05-10T16:37:07;14.40;99.90
39315;DHT22;28703;44.412;11.918;2023-05-10T16:39:43;14.40;99.90
39315;DHT22;28703;44.412;11.918;2023-05-10T16:42:25;14.40;99.90
39315;DHT22;28703;44.412;11.918;2023-05-10T16:44:55;14.30;99.90
39315;DHT22;28703;44.412;11.918;2023-05-10T16:47:25;14.40;99.90
39315;DHT22;28703;44.412;11.918;2023-05-10T16:52:41;14.30;99.90
39315;DHT22;28703;44.412;11.918;2023-05-10T16:55:18;14.30;99.90
39315;DHT22;28703;44.412;11.918;2023-05-10T16:57:45;14.40;99.90
39315;DHT22;28703;44.412;11.918;2023-05-10T17:00:12;14.40;99.90
39315;DHT22;28703;44.412;11.918;2023-05-10T17:02:38;14.40;99.90
39315;DHT22;28703;44.412;11.918;2023-05-10T17:05:04;14.40;99.90
39315;DHT22;28703;44.412;11.918;2023-05-10T17:07:31;14.40;99.90
39315;DHT22;28703;44.412;11.918;2023-05-10T17:12:51;14.40;99.90
39315;DHT22;28703;44.412;11.918;2023-05-10T17:15:20;14.40;99.90
39315;DHT22;28703;44.412;11.918;2023-05-10T17:17:47;14.30;99.90
39315;DHT22;28703;44.412;11.918;2023-05-10T17:20:13;14.30;99.90
39315;DHT22;28703;44.412;11.918;2023-05-10T17:22:40;14.30;99.90
39315;DHT22;28703;44.412;11.918;2023-05-10T17:25:09;14.40;99.90
39315;DHT22;28703;44.412;11.918;2023-05-10T17:27:36;14.40;99.90
39315;DHT22;28703;44.412;11.918;2023-05-10T17:30:05;14.40;99.90